sensor_id;sensor_type;location;lat;lon;timestamp;pressure;altitude;pressure_sealevel;temperature;humidity
250;BME280;109;19.806;-70.704;2023-01-28T00:00:13;101868.00;;;22.99;60.46
250;BME280;109;19.806;-70.704;2023-01-28T00:02:40;101867.94;;;23.02;60.31
250;BME280;109;19.806;-70.704;2023-01-28T00:05:07;101863.63;;;22.95;60.38
250;BME280;109;19.806;-70.704;2023-01-28T00:07:34;101864.78;;;22.86;60.41
250;BME280;109;19.806;-70.704;2023-01-28T00:10:00;101867.75;;;22.76;60.53
250;BME280;109;19.806;-70.704;2023-01-28T00:12:27;101863.41;;;22.72;60.26
250;BME280;109;19.806;-70.704;2023-01-28T00:14:54;101869.63;;;22.72;60.43
250;BME280;109;19.806;-70.704;2023-01-28T00:17:21;101870.53;;;22.71;60.35
250;BME280;109;19.806;-70.704;2023-01-28T00:19:47;101871.38;;;22.73;60.74
250;BME280;109;19.806;-70.704;2023-01-28T00:22:14;101882.97;;;22.72;60.64
250;BME280;109;19.806;-70.704;2023-01-28T00:24:41;101881.03;;;22.77;60.33
250;BME280;109;19.806;-70.704;2023-01-28T00:27:07;101874.88;;;22.75;60.13
250;BME280;109;19.806;-70.704;2023-01-28T00:29:35;101879.34;;;22.75;59.74
250;BME280;109;19.806;-70.704;2023-01-28T00:32:01;101882.16;;;22.69;59.59
250;BME280;109;19.806;-70.704;2023-01-28T00:34:28;101886.56;;;22.71;59.86
250;BME280;109;19.806;-70.704;2023-01-28T00:36:55;101887.34;;;22.75;59.61
250;BME280;109;19.806;-70.704;2023-01-28T00:39:25;101893.72;;;22.69;59.43
250;BME280;109;19.806;-70.704;2023-01-28T00:41:53;101889.31;;;22.68;59.50
250;BME280;109;19.806;-70.704;2023-01-28T00:44:19;101893.03;;;22.62;59.12
250;BME280;109;19.806;-70.704;2023-01-28T00:46:46;101893.75;;;22.68;58.87
250;BME280;109;19.806;-70.704;2023-01-28T00:49:13;101897.28;;;22.70;59.27
250;BME280;109;19.806;-70.704;2023-01-28T00:51:40;101897.41;;;22.63;58.85
250;BME280;109;19.806;-70.704;2023-01-28T00:54:08;101911.72;;;22.62;58.77
250;BME280;109;19.806;-70.704;2023-01-28T00:56:34;101912.50;;;22.64;58.89
250;BME280;109;19.806;-70.704;2023-01-28T00:59:02;101909.81;;;22.66;58.98
250;BME280;109;19.806;-70.704;2023-01-28T01:01:28;101918.19;;;22.52;58.27
250;BME280;109;19.806;-70.704;2023-01-28T01:03:55;101916.44;;;22.51;58.58
250;BME280;109;19.806;-70.704;2023-01-28T01:06:32;101918.75;;;22.63;58.65
250;BME280;109;19.806;-70.704;2023-01-28T01:08:59;101914.19;;;22.69;58.61
250;BME280;109;19.806;-70.704;2023-01-28T01:11:25;101918.75;;;22.63;58.40
250;BME280;109;19.806;-70.704;2023-01-28T01:13:57;101918.69;;;22.67;58.31
250;BME280;109;19.806;-70.704;2023-01-28T01:16:26;101925.94;;;22.63;58.47
250;BME280;109;19.806;-70.704;2023-01-28T01:18:54;101931.38;;;22.58;58.19
250;BME280;109;19.806;-70.704;2023-01-28T01:21:23;101933.97;;;22.61;58.29
250;BME280;109;19.806;-70.704;2023-01-28T01:23:50;101931.38;;;22.58;58.43
250;BME280;109;19.806;-70.704;2023-01-28T01:26:17;101929.53;;;22.60;58.70
250;BME280;109;19.806;-70.704;2023-01-28T01:28:44;101934.91;;;22.59;58.40
250;BME280;109;19.806;-70.704;2023-01-28T01:31:19;101932.34;;;22.54;58.21
250;BME280;109;19.806;-70.704;2023-01-28T01:33:47;101938.59;;;22.53;58.22
250;BME280;109;19.806;-70.704;2023-01-28T01:36:20;101939.38;;;22.58;58.38
250;BME280;109;19.806;-70.704;2023-01-28T01:38:47;101939.38;;;22.58;58.71
250;BME280;109;19.806;-70.704;2023-01-28T01:41:27;101950.06;;;22.58;58.73
250;BME280;109;19.806;-70.704;2023-01-28T01:44:03;101940.41;;;22.53;58.56
250;BME280;109;19.806;-70.704;2023-01-28T01:46:48;101939.50;;;22.54;58.96
250;BME280;109;19.806;-70.704;2023-01-28T01:49:26;101943.16;;;22.50;58.61
250;BME280;109;19.806;-70.704;2023-01-28T01:52:05;101943.25;;;22.47;59.06
250;BME280;109;19.806;-70.704;2023-01-28T01:54:42;101953.09;;;22.43;58.70
250;BME280;109;19.806;-70.704;2023-01-28T01:57:29;101946.81;;;22.46;58.78
250;BME280;109;19.806;-70.704;2023-01-28T02:00:11;101941.41;;;22.49;59.07
250;BME280;109;19.806;-70.704;2023-01-28T02:02:46;101952.97;;;22.49;58.38
250;BME280;109;19.806;-70.704;2023-01-28T02:05:26;101945.88;;;22.48;58.83
250;BME280;109;19.806;-70.704;2023-01-28T02:07:54;101946.78;;;22.47;58.76
250;BME280;109;19.806;-70.704;2023-01-28T02:11:01;101953.97;;;22.44;58.93
250;BME280;109;19.806;-70.704;2023-01-28T02:13:47;101953.19;;;22.40;59.15
250;BME280;109;19.806;-70.704;2023-01-28T02:16:22;101954.09;;;22.39;59.11
250;BME280;109;19.806;-70.704;2023-01-28T02:19:03;101951.34;;;22.42;59.14
250;BME280;109;19.806;-70.704;2023-01-28T02:27:45;101947.06;;;22.35;58.85
250;BME280;109;19.806;-70.704;2023-01-28T02:30:30;101949.69;;;22.37;58.33
250;BME280;109;19.806;-70.704;2023-01-28T02:38:57;101958.34;;;22.48;58.05
250;BME280;109;19.806;-70.704;2023-01-28T02:41:39;101948.56;;;22.47;57.81
250;BME280;109;19.806;-70.704;2023-01-28T02:44:23;101944.00;;;22.50;58.02
250;BME280;109;19.806;-70.704;2023-01-28T02:46:51;101946.56;;;22.55;57.63
250;BME280;109;19.806;-70.704;2023-01-28T02:49:51;101949.63;;;22.40;57.42
250;BME280;109;19.806;-70.704;2023-01-28T03:01:38;101942.56;;;22.37;56.83
250;BME280;109;19.806;-70.704;2023-01-28T03:04:27;101941.56;;;22.43;57.15
250;BME280;109;19.806;-70.704;2023-01-28T03:07:05;101941.34;;;22.50;56.72
250;BME280;109;19.806;-70.704;2023-01-28T03:09:47;101949.34;;;22.50;56.82
250;BME280;109;19.806;-70.704;2023-01-28T03:12:24;101946.66;;;22.52;56.78
250;BME280;109;19.806;-70.704;2023-01-28T03:15:32;101945.38;;;22.31;56.15
250;BME280;109;19.806;-70.704;2023-01-28T03:18:45;101946.94;;;22.41;56.21
250;BME280;109;19.806;-70.704;2023-01-28T03:21:47;101943.34;;;22.42;56.48
250;BME280;109;19.806;-70.704;2023-01-28T03:24:50;101936.22;;;22.43;56.51
250;BME280;109;19.806;-70.704;2023-01-28T03:27:55;101941.59;;;22.41;56.62
250;BME280;109;19.806;-70.704;2023-01-28T03:31:08;101924.69;;;22.42;56.07
250;BME280;109;19.806;-70.704;2023-01-28T03:34:10;101929.16;;;22.40;56.38
250;BME280;109;19.806;-70.704;2023-01-28T03:37:03;101928.31;;;22.38;56.34
250;BME280;109;19.806;-70.704;2023-01-28T03:39:49;101932.72;;;22.41;56.07
250;BME280;109;19.806;-70.704;2023-01-28T03:42:16;101932.66;;;22.44;55.79
250;BME280;109;19.806;-70.704;2023-01-28T03:45:10;101919.28;;;22.45;55.85
250;BME280;109;19.806;-70.704;2023-01-28T03:47:45;101928.19;;;22.44;56.16
250;BME280;109;19.806;-70.704;2023-01-28T03:50:25;101931.84;;;22.40;56.11
250;BME280;109;19.806;-70.704;2023-01-28T03:52:56;101915.75;;;22.43;55.80
250;BME280;109;19.806;-70.704;2023-01-28T03:55:53;101922.22;;;22.33;55.74
250;BME280;109;19.806;-70.704;2023-01-28T03:58:40;101922.50;;;22.22;55.39
250;BME280;109;19.806;-70.704;2023-01-28T04:01:25;101915.41;;;22.21;55.60
250;BME280;109;19.806;-70.704;2023-01-28T04:04:05;101924.19;;;22.25;55.48
250;BME280;109;19.806;-70.704;2023-01-28T04:06:33;101923.22;;;22.27;55.97
250;BME280;109;19.806;-70.704;2023-01-28T04:09:22;101918.03;;;22.23;55.44
250;BME280;109;19.806;-70.704;2023-01-28T04:12:15;101921.31;;;22.34;55.46
250;BME280;109;19.806;-70.704;2023-01-28T04:14:55;101920.38;;;22.35;55.09
250;BME280;109;19.806;-70.704;2023-01-28T04:17:26;101918.66;;;22.33;55.42
250;BME280;109;19.806;-70.704;2023-01-28T04:20:09;101914.06;;;22.38;55.16
250;BME280;109;19.806;-70.704;2023-01-28T04:22:36;101907.97;;;22.34;55.13
250;BME280;109;19.806;-70.704;2023-01-28T04:25:18;101901.66;;;22.38;55.26
250;BME280;109;19.806;-70.704;2023-01-28T04:27:44;101907.91;;;22.37;55.17
250;BME280;109;19.806;-70.704;2023-01-28T04:30:27;101905.16;;;22.40;55.27
250;BME280;109;19.806;-70.704;2023-01-28T04:33:13;101899.97;;;22.34;55.09
250;BME280;109;19.806;-70.704;2023-01-28T04:36:28;101896.31;;;22.38;55.22
250;BME280;109;19.806;-70.704;2023-01-28T04:39:23;101896.47;;;22.32;54.88
250;BME280;109;19.806;-70.704;2023-01-28T04:42:19;101889.41;;;22.29;54.88
250;BME280;109;19.806;-70.704;2023-01-28T04:45:20;101892.03;;;22.31;55.16
250;BME280;109;19.806;-70.704;2023-01-28T04:48:20;101885.94;;;22.26;55.19
250;BME280;109;19.806;-70.704;2023-01-28T04:51:17;101886.09;;;22.20;54.36
250;BME280;109;19.806;-70.704;2023-01-28T04:54:14;101887.97;;;22.16;54.26
250;BME280;109;19.806;-70.704;2023-01-28T04:56:48;101880.00;;;22.15;54.47
250;BME280;109;19.806;-70.704;2023-01-28T04:59:36;101878.09;;;22.20;54.43
250;BME280;109;19.806;-70.704;2023-01-28T05:02:09;101874.59;;;22.18;54.48
250;BME280;109;19.806;-70.704;2023-01-28T05:04:51;101875.50;;;22.17;54.92
250;BME280;109;19.806;-70.704;2023-01-28T05:07:38;101866.84;;;22.09;55.18
250;BME280;109;19.806;-70.704;2023-01-28T05:10:19;101866.94;;;22.04;54.78
250;BME280;109;19.806;-70.704;2023-01-28T05:12:46;101864.38;;;22.00;54.87
250;BME280;109;19.806;-70.704;2023-01-28T05:15:26;101869.84;;;21.95;54.70
250;BME280;109;19.806;-70.704;2023-01-28T05:18:07;101865.44;;;21.92;54.94
250;BME280;109;19.806;-70.704;2023-01-28T05:20:39;101854.84;;;21.89;55.09
250;BME280;109;19.806;-70.704;2023-01-28T05:23:20;101856.66;;;21.89;55.26
250;BME280;109;19.806;-70.704;2023-01-28T05:25:58;101856.66;;;21.89;55.63
250;BME280;109;19.806;-70.704;2023-01-28T05:28:37;101846.03;;;21.87;55.55
250;BME280;109;19.806;-70.704;2023-01-28T05:31:12;101839.91;;;21.84;55.83
250;BME280;109;19.806;-70.704;2023-01-28T05:33:51;101851.59;;;21.78;56.43
250;BME280;109;19.806;-70.704;2023-01-28T05:36:19;101842.78;;;21.73;56.17
250;BME280;109;19.806;-70.704;2023-01-28T05:39:06;101849.84;;;21.76;56.06
250;BME280;109;19.806;-70.704;2023-01-28T05:41:40;101843.56;;;21.80;55.82
250;BME280;109;19.806;-70.704;2023-01-28T05:44:19;101840.00;;;21.79;55.29
250;BME280;109;19.806;-70.704;2023-01-28T05:47:04;101839.16;;;21.77;56.28
250;BME280;109;19.806;-70.704;2023-01-28T05:50:14;101835.97;;;21.60;56.61
250;BME280;109;19.806;-70.704;2023-01-28T05:53:08;101839.81;;;21.48;56.95
250;BME280;109;19.806;-70.704;2023-01-28T05:55:51;101836.44;;;21.42;57.40
250;BME280;109;19.806;-70.704;2023-01-28T05:58:39;101834.00;;;21.31;57.41
250;BME280;109;19.806;-70.704;2023-01-28T06:01:18;101838.69;;;21.20;58.09
250;BME280;109;19.806;-70.704;2023-01-28T06:03:58;101836.19;;;21.11;58.06
250;BME280;109;19.806;-70.704;2023-01-28T06:06:28;101837.22;;;21.04;58.48
250;BME280;109;19.806;-70.704;2023-01-28T06:09:09;101828.56;;;20.94;58.29
250;BME280;109;19.806;-70.704;2023-01-28T06:11:35;101824.25;;;20.87;58.74
250;BME280;109;19.806;-70.704;2023-01-28T06:14:24;101830.56;;;20.83;58.87
250;BME280;109;19.806;-70.704;2023-01-28T06:17:26;101820.97;;;20.74;58.96
250;BME280;109;19.806;-70.704;2023-01-28T06:20:13;101812.19;;;20.69;59.06
250;BME280;109;19.806;-70.704;2023-01-28T06:22:50;101823.81;;;20.67;59.17
250;BME280;109;19.806;-70.704;2023-01-28T06:25:30;101822.38;;;20.46;59.68
250;BME280;109;19.806;-70.704;2023-01-28T06:28:12;101822.19;;;20.58;59.39
250;BME280;109;19.806;-70.704;2023-01-28T06:30:39;101819.59;;;20.55;59.20
250;BME280;109;19.806;-70.704;2023-01-28T06:33:27;101813.47;;;20.51;59.52
250;BME280;109;19.806;-70.704;2023-01-28T06:36:02;101819.69;;;20.50;59.44
250;BME280;109;19.806;-70.704;2023-01-28T06:38:42;101816.13;;;20.50;59.43
250;BME280;109;19.806;-70.704;2023-01-28T06:41:09;101812.56;;;20.52;59.33
250;BME280;109;19.806;-70.704;2023-01-28T06:43:48;101806.41;;;20.49;59.29
250;BME280;109;19.806;-70.704;2023-01-28T06:46:14;101794.94;;;20.44;59.51
250;BME280;109;19.806;-70.704;2023-01-28T06:48:56;101793.25;;;20.41;59.81
250;BME280;109;19.806;-70.704;2023-01-28T06:51:23;101786.13;;;20.42;59.65
250;BME280;109;19.806;-70.704;2023-01-28T06:54:02;101790.63;;;20.38;59.89
250;BME280;109;19.806;-70.704;2023-01-28T06:56:28;101788.94;;;20.34;59.79
250;BME280;109;19.806;-70.704;2023-01-28T06:59:15;101791.56;;;20.36;59.90
250;BME280;109;19.806;-70.704;2023-01-28T07:01:48;101787.22;;;20.30;60.16
250;BME280;109;19.806;-70.704;2023-01-28T07:04:30;101784.56;;;20.30;60.22
250;BME280;109;19.806;-70.704;2023-01-28T07:06:57;101780.28;;;20.23;60.30
250;BME280;109;19.806;-70.704;2023-01-28T07:09:36;101775.88;;;20.21;60.41
250;BME280;109;19.806;-70.704;2023-01-28T07:12:03;101776.00;;;20.16;60.35
250;BME280;109;19.806;-70.704;2023-01-28T07:14:50;101780.44;;;20.15;60.31
250;BME280;109;19.806;-70.704;2023-01-28T07:17:22;101782.19;;;20.16;60.55
250;BME280;109;19.806;-70.704;2023-01-28T07:20:04;101786.72;;;20.10;60.66
250;BME280;109;19.806;-70.704;2023-01-28T07:22:44;101776.09;;;20.10;60.66
250;BME280;109;19.806;-70.704;2023-01-28T07:25:12;101775.22;;;20.08;60.36
250;BME280;109;19.806;-70.704;2023-01-28T07:27:53;101780.53;;;20.09;60.64
250;BME280;109;19.806;-70.704;2023-01-28T07:30:20;101774.31;;;20.09;60.25
250;BME280;109;19.806;-70.704;2023-01-28T07:33:00;101769.00;;;20.09;60.20
250;BME280;109;19.806;-70.704;2023-01-28T07:35:34;101768.13;;;20.10;60.18
250;BME280;109;19.806;-70.704;2023-01-28T07:38:14;101769.09;;;20.04;60.26
250;BME280;109;19.806;-70.704;2023-01-28T07:40:41;101762.91;;;20.04;60.39
250;BME280;109;19.806;-70.704;2023-01-28T07:43:20;101766.47;;;20.03;60.56
250;BME280;109;19.806;-70.704;2023-01-28T07:45:49;101769.94;;;20.06;60.34
250;BME280;109;19.806;-70.704;2023-01-28T07:48:28;101771.81;;;20.01;60.50
250;BME280;109;19.806;-70.704;2023-01-28T07:50:57;101761.22;;;20.00;60.42
250;BME280;109;19.806;-70.704;2023-01-28T07:53:39;101773.50;;;20.05;60.69
250;BME280;109;19.806;-70.704;2023-01-28T07:56:06;101764.78;;;19.99;60.92
250;BME280;109;19.806;-70.704;2023-01-28T07:58:53;101764.81;;;19.97;60.83
250;BME280;109;19.806;-70.704;2023-01-28T08:01:32;101768.34;;;19.98;60.69
250;BME280;109;19.806;-70.704;2023-01-28T08:04:12;101765.84;;;19.89;61.16
250;BME280;109;19.806;-70.704;2023-01-28T08:06:39;101765.69;;;19.96;61.02
250;BME280;109;19.806;-70.704;2023-01-28T08:09:27;101766.59;;;19.95;60.86
250;BME280;109;19.806;-70.704;2023-01-28T08:12:01;101757.78;;;19.93;60.91
250;BME280;109;19.806;-70.704;2023-01-28T08:14:40;101766.63;;;19.94;60.88
250;BME280;109;19.806;-70.704;2023-01-28T08:17:06;101768.34;;;19.96;61.02
250;BME280;109;19.806;-70.704;2023-01-28T08:19:46;101766.41;;;20.06;60.88
250;BME280;109;19.806;-70.704;2023-01-28T08:22:27;101769.16;;;20.03;60.82
250;BME280;109;19.806;-70.704;2023-01-28T08:24:53;101773.47;;;20.07;60.91
250;BME280;109;19.806;-70.704;2023-01-28T08:27:33;101770.78;;;20.08;60.92
250;BME280;109;19.806;-70.704;2023-01-28T08:29:59;101769.00;;;20.10;60.92
250;BME280;109;19.806;-70.704;2023-01-28T08:32:41;101770.72;;;20.13;60.87
250;BME280;109;19.806;-70.704;2023-01-28T08:35:08;101768.84;;;20.18;60.36
250;BME280;109;19.806;-70.704;2023-01-28T08:37:57;101767.94;;;20.19;60.79
250;BME280;109;19.806;-70.704;2023-01-28T08:40:30;101769.69;;;20.20;60.97
250;BME280;109;19.806;-70.704;2023-01-28T08:43:11;101769.63;;;20.23;60.62
250;BME280;109;19.806;-70.704;2023-01-28T08:45:41;101776.63;;;20.29;60.63
250;BME280;109;19.806;-70.704;2023-01-28T08:48:21;101774.03;;;20.26;60.32
250;BME280;109;19.806;-70.704;2023-01-28T08:50:48;101776.66;;;20.27;60.75
250;BME280;109;19.806;-70.704;2023-01-28T08:53:28;101771.25;;;20.30;60.81
250;BME280;109;19.806;-70.704;2023-01-28T08:55:54;101771.19;;;20.35;60.76
250;BME280;109;19.806;-70.704;2023-01-28T08:58:42;101774.78;;;20.32;60.61
250;BME280;109;19.806;-70.704;2023-01-28T09:01:22;101780.03;;;20.37;60.64
250;BME280;109;19.806;-70.704;2023-01-28T09:04:02;101779.22;;;20.32;60.80
250;BME280;109;19.806;-70.704;2023-01-28T09:06:29;101790.59;;;20.40;60.23
250;BME280;109;19.806;-70.704;2023-01-28T09:09:09;101780.88;;;20.39;60.54
250;BME280;109;19.806;-70.704;2023-01-28T09:11:44;101783.41;;;20.43;60.71
250;BME280;109;19.806;-70.704;2023-01-28T09:14:24;101796.00;;;20.35;60.27
250;BME280;109;19.806;-70.704;2023-01-28T09:16:51;101797.56;;;20.45;60.60
250;BME280;109;19.806;-70.704;2023-01-28T09:19:30;101801.97;;;20.46;60.58
250;BME280;109;19.806;-70.704;2023-01-28T09:21:57;101797.59;;;20.44;60.11
250;BME280;109;19.806;-70.704;2023-01-28T09:24:38;101805.44;;;20.53;60.48
250;BME280;109;19.806;-70.704;2023-01-28T09:27:05;101798.25;;;20.57;60.32
250;BME280;109;19.806;-70.704;2023-01-28T09:29:46;101793.78;;;20.59;60.55
250;BME280;109;19.806;-70.704;2023-01-28T09:32:34;101802.66;;;20.59;60.08
250;BME280;109;19.806;-70.704;2023-01-28T09:35:07;101803.53;;;20.60;60.17
250;BME280;109;19.806;-70.704;2023-01-28T09:37:49;101806.16;;;20.61;60.46
250;BME280;109;19.806;-70.704;2023-01-28T09:46:00;101799.09;;;20.60;60.17
250;BME280;109;19.806;-70.704;2023-01-28T09:48:48;101803.53;;;20.60;60.48
250;BME280;109;19.806;-70.704;2023-01-28T09:51:39;101814.16;;;20.60;61.19
250;BME280;109;19.806;-70.704;2023-01-28T09:54:40;101823.00;;;20.62;60.79
250;BME280;109;19.806;-70.704;2023-01-28T09:57:38;101839.88;;;20.61;61.45
250;BME280;109;19.806;-70.704;2023-01-28T10:00:23;101847.00;;;20.59;62.04
250;BME280;109;19.806;-70.704;2023-01-28T10:06:54;101857.81;;;20.49;65.18
250;BME280;109;19.806;-70.704;2023-01-28T10:09:51;101854.47;;;20.37;65.76
250;BME280;109;19.806;-70.704;2023-01-28T10:12:49;101856.25;;;20.36;66.17
250;BME280;109;19.806;-70.704;2023-01-28T10:15:49;101859.72;;;20.41;67.15
250;BME280;109;19.806;-70.704;2023-01-28T10:21:53;101856.09;;;20.44;67.84
250;BME280;109;19.806;-70.704;2023-01-28T10:24:46;101859.59;;;20.49;68.22
250;BME280;109;19.806;-70.704;2023-01-28T10:27:30;101862.25;;;20.49;67.74
250;BME280;109;19.806;-70.704;2023-01-28T10:35:56;101869.75;;;20.26;68.26
250;BME280;109;19.806;-70.704;2023-01-28T10:38:24;101868.88;;;20.24;68.07
250;BME280;109;19.806;-70.704;2023-01-28T10:41:05;101878.59;;;20.26;68.35
250;BME280;109;19.806;-70.704;2023-01-28T10:43:33;101888.19;;;20.35;68.29
250;BME280;109;19.806;-70.704;2023-01-28T10:48:58;101885.66;;;20.29;68.54
250;BME280;109;19.806;-70.704;2023-01-28T10:51:42;101887.53;;;20.21;68.49
250;BME280;109;19.806;-70.704;2023-01-28T10:56:58;101892.09;;;20.14;68.91
250;BME280;109;19.806;-70.704;2023-01-28T10:59:31;101890.38;;;20.10;68.92
250;BME280;109;19.806;-70.704;2023-01-28T11:02:04;101885.84;;;20.16;69.14
250;BME280;109;19.806;-70.704;2023-01-28T11:04:45;101881.50;;;20.11;68.54
250;BME280;109;19.806;-70.704;2023-01-28T11:07:19;101889.47;;;20.11;68.97
250;BME280;109;19.806;-70.704;2023-01-28T11:09:48;101891.31;;;20.06;69.10
250;BME280;109;19.806;-70.704;2023-01-28T11:12:25;101893.22;;;19.98;68.52
250;BME280;109;19.806;-70.704;2023-01-28T11:17:23;101896.75;;;20.00;69.14
250;BME280;109;19.806;-70.704;2023-01-28T11:19:55;101899.38;;;20.01;68.98
250;BME280;109;19.806;-70.704;2023-01-28T11:22:34;101905.63;;;19.97;69.03
250;BME280;109;19.806;-70.704;2023-01-28T11:25:05;101904.78;;;19.94;69.03
250;BME280;109;19.806;-70.704;2023-01-28T11:27:46;101910.94;;;19.99;69.27
250;BME280;109;19.806;-70.704;2023-01-28T11:30:34;101911.69;;;20.07;68.89
250;BME280;109;19.806;-70.704;2023-01-28T11:36:28;101916.06;;;20.11;69.03
250;BME280;109;19.806;-70.704;2023-01-28T11:38:57;101917.00;;;20.07;69.19
250;BME280;109;19.806;-70.704;2023-01-28T11:43:56;101933.81;;;20.07;69.11
250;BME280;109;19.806;-70.704;2023-01-28T11:52:13;101941.78;;;20.09;69.37
250;BME280;109;19.806;-70.704;2023-01-28T11:54:56;101941.81;;;20.06;69.63
250;BME280;109;19.806;-70.704;2023-01-28T11:57:38;101952.41;;;20.09;69.83
250;BME280;109;19.806;-70.704;2023-01-28T12:00:19;101960.31;;;20.13;69.58
250;BME280;109;19.806;-70.704;2023-01-28T12:05:45;101967.25;;;20.22;68.96
250;BME280;109;19.806;-70.704;2023-01-28T12:11:14;101967.75;;;20.48;69.40
250;BME280;109;19.806;-70.704;2023-01-28T12:14:04;101966.63;;;20.63;69.03
250;BME280;109;19.806;-70.704;2023-01-28T12:20:03;101966.59;;;20.65;68.84
250;BME280;109;19.806;-70.704;2023-01-28T12:28:23;101973.44;;;20.79;68.96
250;BME280;109;19.806;-70.704;2023-01-28T12:31:12;101978.19;;;21.08;68.58
250;BME280;109;19.806;-70.704;2023-01-28T12:36:47;102004.06;;;21.02;67.74
250;BME280;109;19.806;-70.704;2023-01-28T12:39:43;102022.72;;;20.46;71.40
250;BME280;109;19.806;-70.704;2023-01-28T12:45:23;102040.97;;;20.11;72.28
250;BME280;109;19.806;-70.704;2023-01-28T12:48:16;102038.78;;;20.42;71.32
250;BME280;109;19.806;-70.704;2023-01-28T12:50:51;102035.84;;;20.59;71.96
250;BME280;109;19.806;-70.704;2023-01-28T12:55:59;102026.66;;;20.79;70.43
250;BME280;109;19.806;-70.704;2023-01-28T12:58:43;102030.84;;;20.94;71.14
250;BME280;109;19.806;-70.704;2023-01-28T13:01:13;102019.25;;;20.97;70.68
250;BME280;109;19.806;-70.704;2023-01-28T13:04:00;102030.66;;;21.03;71.22
250;BME280;109;19.806;-70.704;2023-01-28T13:09:11;102042.47;;;20.87;69.81
250;BME280;109;19.806;-70.704;2023-01-28T13:11:40;102025.63;;;20.88;69.66
250;BME280;109;19.806;-70.704;2023-01-28T13:14:11;102028.22;;;20.91;70.11
250;BME280;109;19.806;-70.704;2023-01-28T13:16:38;102043.19;;;20.97;69.72
250;BME280;109;19.806;-70.704;2023-01-28T13:19:20;102053.81;;;20.98;70.02
250;BME280;109;19.806;-70.704;2023-01-28T13:21:47;102065.00;;;21.20;69.82
250;BME280;109;19.806;-70.704;2023-01-28T13:31:42;102079.19;;;21.67;69.76
250;BME280;109;19.806;-70.704;2023-01-28T13:34:29;102089.44;;;21.43;68.43
250;BME280;109;19.806;-70.704;2023-01-28T13:37:26;102088.63;;;21.38;68.64
250;BME280;109;19.806;-70.704;2023-01-28T13:40:02;102086.75;;;21.45;68.23
250;BME280;109;19.806;-70.704;2023-01-28T13:42:30;102104.97;;;21.20;67.14
250;BME280;109;19.806;-70.704;2023-01-28T13:47:48;102110.38;;;21.11;69.98
250;BME280;109;19.806;-70.704;2023-01-28T13:50:20;102113.47;;;20.85;68.10
250;BME280;109;19.806;-70.704;2023-01-28T13:53:06;102118.25;;;20.65;67.04
250;BME280;109;19.806;-70.704;2023-01-28T13:55:42;102119.69;;;20.85;68.33
250;BME280;109;19.806;-70.704;2023-01-28T13:58:32;102122.91;;;21.07;68.49
250;BME280;109;19.806;-70.704;2023-01-28T14:07:05;102122.97;;;21.03;64.50
250;BME280;109;19.806;-70.704;2023-01-28T14:12:36;102108.53;;;21.17;63.38
250;BME280;109;19.806;-70.704;2023-01-28T14:15:08;102119.59;;;21.44;63.80
250;BME280;109;19.806;-70.704;2023-01-28T14:17:48;102107.63;;;21.66;64.16
250;BME280;109;19.806;-70.704;2023-01-28T14:20:22;102108.94;;;21.91;63.89
250;BME280;109;19.806;-70.704;2023-01-28T14:22:56;102113.91;;;22.10;63.37
250;BME280;109;19.806;-70.704;2023-01-28T14:27:59;102104.94;;;22.12;63.31
250;BME280;109;19.806;-70.704;2023-01-28T14:30:40;102097.94;;;22.08;62.34
250;BME280;109;19.806;-70.704;2023-01-28T14:33:10;102100.88;;;22.36;62.58
250;BME280;109;19.806;-70.704;2023-01-28T14:35:43;102107.50;;;22.58;62.56
250;BME280;109;19.806;-70.704;2023-01-28T14:38:19;102100.59;;;22.87;61.80
250;BME280;109;19.806;-70.704;2023-01-28T14:40:51;102098.41;;;23.03;60.68
250;BME280;109;19.806;-70.704;2023-01-28T14:43:24;102100.31;;;22.97;59.58
250;BME280;109;19.806;-70.704;2023-01-28T14:56:49;102092.56;;;22.87;58.88
250;BME280;109;19.806;-70.704;2023-01-28T14:59:22;102088.34;;;22.77;58.64
250;BME280;109;19.806;-70.704;2023-01-28T15:01:57;102086.19;;;22.92;59.53
250;BME280;109;19.806;-70.704;2023-01-28T15:04:31;102090.75;;;22.89;59.67
250;BME280;109;19.806;-70.704;2023-01-28T15:07:11;102084.81;;;23.13;60.33
250;BME280;109;19.806;-70.704;2023-01-28T15:09:40;102079.16;;;23.25;60.13
250;BME280;109;19.806;-70.704;2023-01-28T15:12:08;102072.47;;;23.08;59.58
250;BME280;109;19.806;-70.704;2023-01-28T15:14:35;102075.03;;;23.12;59.70
250;BME280;109;19.806;-70.704;2023-01-28T15:17:05;102077.19;;;23.30;59.63
250;BME280;109;19.806;-70.704;2023-01-28T15:19:35;102075.13;;;23.42;59.70
250;BME280;109;19.806;-70.704;2023-01-28T15:22:05;102066.50;;;23.64;60.01
250;BME280;109;19.806;-70.704;2023-01-28T15:24:35;102066.91;;;23.49;58.87
250;BME280;109;19.806;-70.704;2023-01-28T15:27:02;102062.22;;;23.25;59.21
250;BME280;109;19.806;-70.704;2023-01-28T15:29:35;102062.06;;;23.31;59.21
250;BME280;109;19.806;-70.704;2023-01-28T15:32:03;102052.00;;;23.41;58.54
250;BME280;109;19.806;-70.704;2023-01-28T15:34:30;102050.72;;;23.86;58.12
250;BME280;109;19.806;-70.704;2023-01-28T15:37:00;102054.53;;;24.07;57.26
250;BME280;109;19.806;-70.704;2023-01-28T15:39:28;102041.13;;;24.64;57.34
250;BME280;109;19.806;-70.704;2023-01-28T15:44:30;102037.63;;;25.15;56.60
250;BME280;109;19.806;-70.704;2023-01-28T15:46:59;102029.03;;;25.05;54.95
250;BME280;109;19.806;-70.704;2023-01-28T15:49:32;102022.47;;;25.14;56.55
250;BME280;109;19.806;-70.704;2023-01-28T15:52:01;102022.69;;;24.83;55.36
250;BME280;109;19.806;-70.704;2023-01-28T15:54:28;102012.03;;;24.82;55.75
250;BME280;109;19.806;-70.704;2023-01-28T15:56:56;102010.88;;;24.89;56.41
250;BME280;109;19.806;-70.704;2023-01-28T15:59:27;102008.59;;;24.50;56.81
250;BME280;109;19.806;-70.704;2023-01-28T16:02:22;102000.00;;;24.40;57.00
250;BME280;109;19.806;-70.704;2023-01-28T16:05:03;101999.88;;;24.16;58.17